sensor_id;sensor_type;location;lat;lon;timestamp;P1;durP1;ratioP1;P2;durP2;ratioP2
21432;SDS011;18592;49.708;10.900;2024-02-16T00:02:01;2.67;;;2.38;;
21432;SDS011;18592;49.708;10.900;2024-02-16T00:04:03;3.50;;;2.60;;
21432;SDS011;18592;49.708;10.900;2024-02-16T00:06:04;2.67;;;2.30;;
21432;SDS011;18592;49.708;10.900;2024-02-16T00:08:06;2.40;;;2.20;;
21432;SDS011;18592;49.708;10.900;2024-02-16T00:10:08;2.55;;;2.20;;
21432;SDS011;18592;49.708;10.900;2024-02-16T00:12:10;3.35;;;2.38;;
21432;SDS011;18592;49.708;10.900;2024-02-16T00:14:12;3.25;;;2.72;;
21432;SDS011;18592;49.708;10.900;2024-02-16T00:16:14;2.70;;;2.17;;
21432;SDS011;18592;49.708;10.900;2024-02-16T00:18:15;2.58;;;2.20;;
21432;SDS011;18592;49.708;10.900;2024-02-16T00:20:17;2.95;;;2.45;;
21432;SDS011;18592;49.708;10.900;2024-02-16T00:22:20;2.72;;;2.15;;
21432;SDS011;18592;49.708;10.900;2024-02-16T00:24:22;3.20;;;2.10;;
21432;SDS011;18592;49.708;10.900;2024-02-16T00:26:23;2.83;;;2.53;;
21432;SDS011;18592;49.708;10.900;2024-02-16T00:28:24;2.40;;;2.10;;
21432;SDS011;18592;49.708;10.900;2024-02-16T00:30:26;2.45;;;2.22;;
21432;SDS011;18592;49.708;10.900;2024-02-16T00:32:28;2.65;;;2.20;;
21432;SDS011;18592;49.708;10.900;2024-02-16T00:34:32;2.78;;;2.03;;
21432;SDS011;18592;49.708;10.900;2024-02-16T00:36:39;2.50;;;2.30;;
21432;SDS011;18592;49.708;10.900;2024-02-16T00:38:40;2.45;;;2.22;;
21432;SDS011;18592;49.708;10.900;2024-02-16T00:40:42;2.55;;;2.03;;
21432;SDS011;18592;49.708;10.900;2024-02-16T00:42:44;2.28;;;2.08;;
21432;SDS011;18592;49.708;10.900;2024-02-16T00:44:46;2.33;;;2.08;;
21432;SDS011;18592;49.708;10.900;2024-02-16T00:46:47;2.15;;;1.90;;
21432;SDS011;18592;49.708;10.900;2024-02-16T00:48:49;2.22;;;1.98;;
21432;SDS011;18592;49.708;10.900;2024-02-16T00:50:52;2.45;;;1.95;;
21432;SDS011;18592;49.708;10.900;2024-02-16T00:52:54;2.30;;;2.03;;
21432;SDS011;18592;49.708;10.900;2024-02-16T00:54:55;2.42;;;2.10;;
21432;SDS011;18592;49.708;10.900;2024-02-16T00:56:57;2.50;;;2.30;;
21432;SDS011;18592;49.708;10.900;2024-02-16T00:59:04;2.95;;;2.08;;
21432;SDS011;18592;49.708;10.900;2024-02-16T01:01:05;2.95;;;2.13;;
21432;SDS011;18592;49.708;10.900;2024-02-16T01:03:11;2.53;;;2.30;;
21432;SDS011;18592;49.708;10.900;2024-02-16T01:05:14;2.30;;;2.00;;
21432;SDS011;18592;49.708;10.900;2024-02-16T01:07:18;2.20;;;2.00;;
21432;SDS011;18592;49.708;10.900;2024-02-16T01:09:20;3.13;;;2.10;;
21432;SDS011;18592;49.708;10.900;2024-02-16T01:11:22;2.65;;;2.03;;
21432;SDS011;18592;49.708;10.900;2024-02-16T01:13:23;2.30;;;2.03;;
21432;SDS011;18592;49.708;10.900;2024-02-16T01:15:25;2.10;;;1.90;;
21432;SDS011;18592;49.708;10.900;2024-02-16T01:17:26;2.17;;;1.98;;
21432;SDS011;18592;49.708;10.900;2024-02-16T01:19:28;2.35;;;1.90;;
21432;SDS011;18592;49.708;10.900;2024-02-16T01:21:30;1.95;;;1.80;;
21432;SDS011;18592;49.708;10.900;2024-02-16T01:23:31;3.00;;;1.80;;
21432;SDS011;18592;49.708;10.900;2024-02-16T01:25:33;2.00;;;1.80;;
21432;SDS011;18592;49.708;10.900;2024-02-16T01:27:35;2.25;;;1.80;;
21432;SDS011;18592;49.708;10.900;2024-02-16T01:29:37;2.20;;;1.80;;
21432;SDS011;18592;49.708;10.900;2024-02-16T01:31:39;2.08;;;1.88;;
21432;SDS011;18592;49.708;10.900;2024-02-16T01:33:40;2.08;;;1.60;;
21432;SDS011;18592;49.708;10.900;2024-02-16T01:35:42;1.92;;;1.60;;
21432;SDS011;18592;49.708;10.900;2024-02-16T01:37:43;1.67;;;1.52;;
21432;SDS011;18592;49.708;10.900;2024-02-16T01:39:45;2.10;;;1.90;;
21432;SDS011;18592;49.708;10.900;2024-02-16T01:41:47;2.08;;;1.80;;
21432;SDS011;18592;49.708;10.900;2024-02-16T01:43:48;2.15;;;1.95;;
21432;SDS011;18592;49.708;10.900;2024-02-16T01:45:54;1.48;;;1.38;;
21432;SDS011;18592;49.708;10.900;2024-02-16T01:47:55;1.65;;;1.52;;
21432;SDS011;18592;49.708;10.900;2024-02-16T01:49:57;2.13;;;1.83;;
21432;SDS011;18592;49.708;10.900;2024-02-16T01:51:59;2.10;;;1.90;;
21432;SDS011;18592;49.708;10.900;2024-02-16T01:54:01;1.80;;;1.50;;
21432;SDS011;18592;49.708;10.900;2024-02-16T01:56:03;1.50;;;1.30;;
21432;SDS011;18592;49.708;10.900;2024-02-16T01:58:05;2.00;;;1.80;;
21432;SDS011;18592;49.708;10.900;2024-02-16T02:00:06;2.10;;;1.75;;
21432;SDS011;18592;49.708;10.900;2024-02-16T02:02:09;2.28;;;1.65;;
21432;SDS011;18592;49.708;10.900;2024-02-16T02:04:10;1.75;;;1.60;;
21432;SDS011;18592;49.708;10.900;2024-02-16T02:06:12;1.77;;;1.52;;
21432;SDS011;18592;49.708;10.900;2024-02-16T02:08:14;1.73;;;1.52;;
21432;SDS011;18592;49.708;10.900;2024-02-16T02:10:15;2.33;;;1.90;;
21432;SDS011;18592;49.708;10.900;2024-02-16T02:12:17;2.90;;;1.70;;
21432;SDS011;18592;49.708;10.900;2024-02-16T02:14:21;1.60;;;1.50;;
21432;SDS011;18592;49.708;10.900;2024-02-16T02:16:24;1.67;;;1.52;;
21432;SDS011;18592;49.708;10.900;2024-02-16T02:18:28;2.35;;;2.00;;
21432;SDS011;18592;49.708;10.900;2024-02-16T02:20:29;2.10;;;1.83;;
21432;SDS011;18592;49.708;10.900;2024-02-16T02:22:31;1.50;;;1.40;;
21432;SDS011;18592;49.708;10.900;2024-02-16T02:24:32;1.80;;;1.60;;
21432;SDS011;18592;49.708;10.900;2024-02-16T02:26:34;2.45;;;1.90;;
21432;SDS011;18592;49.708;10.900;2024-02-16T02:28:35;2.08;;;1.60;;
21432;SDS011;18592;49.708;10.900;2024-02-16T02:30:37;1.77;;;1.67;;
21432;SDS011;18592;49.708;10.900;2024-02-16T02:32:39;2.05;;;1.50;;
21432;SDS011;18592;49.708;10.900;2024-02-16T02:34:43;1.73;;;1.50;;
21432;SDS011;18592;49.708;10.900;2024-02-16T02:36:45;1.98;;;1.55;;
21432;SDS011;18592;49.708;10.900;2024-02-16T02:38:47;1.60;;;1.50;;
21432;SDS011;18592;49.708;10.900;2024-02-16T02:40:48;1.90;;;1.70;;
21432;SDS011;18592;49.708;10.900;2024-02-16T02:42:50;1.63;;;1.50;;
21432;SDS011;18592;49.708;10.900;2024-02-16T02:44:52;1.42;;;1.23;;
21432;SDS011;18592;49.708;10.900;2024-02-16T02:46:53;1.98;;;1.58;;
21432;SDS011;18592;49.708;10.900;2024-02-16T02:48:55;1.63;;;1.50;;
21432;SDS011;18592;49.708;10.900;2024-02-16T02:50:57;2.08;;;1.80;;
21432;SDS011;18592;49.708;10.900;2024-02-16T02:53:01;1.70;;;1.60;;
21432;SDS011;18592;49.708;10.900;2024-02-16T02:55:02;2.25;;;1.80;;
21432;SDS011;18592;49.708;10.900;2024-02-16T02:57:04;2.08;;;1.60;;
21432;SDS011;18592;49.708;10.900;2024-02-16T02:59:06;1.90;;;1.55;;
21432;SDS011;18592;49.708;10.900;2024-02-16T03:01:08;2.33;;;1.40;;
21432;SDS011;18592;49.708;10.900;2024-02-16T03:03:10;2.70;;;1.63;;
21432;SDS011;18592;49.708;10.900;2024-02-16T03:05:12;2.35;;;1.70;;
21432;SDS011;18592;49.708;10.900;2024-02-16T03:07:13;2.63;;;1.73;;
21432;SDS011;18592;49.708;10.900;2024-02-16T03:09:15;1.60;;;1.48;;
21432;SDS011;18592;49.708;10.900;2024-02-16T03:11:18;2.13;;;1.40;;
21432;SDS011;18592;49.708;10.900;2024-02-16T03:13:19;1.73;;;1.50;;
21432;SDS011;18592;49.708;10.900;2024-02-16T03:15:21;1.90;;;1.50;;
21432;SDS011;18592;49.708;10.900;2024-02-16T03:17:23;1.60;;;1.50;;
21432;SDS011;18592;49.708;10.900;2024-02-16T03:19:24;1.50;;;1.30;;
21432;SDS011;18592;49.708;10.900;2024-02-16T03:21:26;1.70;;;1.60;;
21432;SDS011;18592;49.708;10.900;2024-02-16T03:23:28;1.98;;;1.58;;
21432;SDS011;18592;49.708;10.900;2024-02-16T03:25:30;1.30;;;1.20;;
21432;SDS011;18592;49.708;10.900;2024-02-16T03:27:31;1.88;;;1.58;;
21432;SDS011;18592;49.708;10.900;2024-02-16T03:29:33;1.40;;;1.30;;
21432;SDS011;18592;49.708;10.900;2024-02-16T03:31:35;1.50;;;1.40;;
21432;SDS011;18592;49.708;10.900;2024-02-16T03:33:37;1.63;;;1.50;;
21432;SDS011;18592;49.708;10.900;2024-02-16T03:35:38;1.35;;;1.25;;
21432;SDS011;18592;49.708;10.900;2024-02-16T03:37:41;1.67;;;1.20;;
21432;SDS011;18592;49.708;10.900;2024-02-16T03:39:43;1.50;;;1.40;;
21432;SDS011;18592;49.708;10.900;2024-02-16T03:41:44;1.50;;;1.40;;
21432;SDS011;18592;49.708;10.900;2024-02-16T03:43:49;1.70;;;1.35;;
21432;SDS011;18592;49.708;10.900;2024-02-16T03:45:51;1.80;;;1.50;;
21432;SDS011;18592;49.708;10.900;2024-02-16T03:47:52;1.60;;;1.50;;
21432;SDS011;18592;49.708;10.900;2024-02-16T03:49:54;1.40;;;1.30;;
21432;SDS011;18592;49.708;10.900;2024-02-16T03:51:56;1.80;;;1.55;;
21432;SDS011;18592;49.708;10.900;2024-02-16T03:53:57;1.88;;;1.48;;
21432;SDS011;18592;49.708;10.900;2024-02-16T03:55:59;1.90;;;1.60;;
21432;SDS011;18592;49.708;10.900;2024-02-16T03:58:01;1.60;;;1.50;;
21432;SDS011;18592;49.708;10.900;2024-02-16T04:00:03;1.85;;;1.45;;
21432;SDS011;18592;49.708;10.900;2024-02-16T04:02:15;2.10;;;1.52;;
21432;SDS011;18592;49.708;10.900;2024-02-16T04:04:16;1.60;;;1.42;;
21432;SDS011;18592;49.708;10.900;2024-02-16T04:06:18;1.40;;;1.30;;
21432;SDS011;18592;49.708;10.900;2024-02-16T04:08:20;1.42;;;1.30;;
21432;SDS011;18592;49.708;10.900;2024-02-16T04:10:22;1.75;;;1.40;;
21432;SDS011;18592;49.708;10.900;2024-02-16T04:12:23;1.88;;;1.35;;
21432;SDS011;18592;49.708;10.900;2024-02-16T04:14:25;1.83;;;1.60;;
21432;SDS011;18592;49.708;10.900;2024-02-16T04:16:27;2.15;;;1.58;;
21432;SDS011;18592;49.708;10.900;2024-02-16T04:18:29;1.60;;;1.30;;
21432;SDS011;18592;49.708;10.900;2024-02-16T04:20:31;1.70;;;1.30;;
21432;SDS011;18592;49.708;10.900;2024-02-16T04:22:32;1.40;;;1.30;;
21432;SDS011;18592;49.708;10.900;2024-02-16T04:24:38;1.73;;;1.55;;
21432;SDS011;18592;49.708;10.900;2024-02-16T04:26:40;1.55;;;1.40;;
21432;SDS011;18592;49.708;10.900;2024-02-16T04:28:41;1.63;;;1.15;;
21432;SDS011;18592;49.708;10.900;2024-02-16T04:30:43;1.33;;;1.23;;
21432;SDS011;18592;49.708;10.900;2024-02-16T04:32:45;1.38;;;1.27;;
21432;SDS011;18592;49.708;10.900;2024-02-16T04:34:46;1.20;;;1.10;;
21432;SDS011;18592;49.708;10.900;2024-02-16T04:36:48;1.42;;;1.27;;
21432;SDS011;18592;49.708;10.900;2024-02-16T04:38:49;2.53;;;1.33;;
21432;SDS011;18592;49.708;10.900;2024-02-16T04:40:51;1.67;;;1.55;;
21432;SDS011;18592;49.708;10.900;2024-02-16T04:42:53;1.23;;;1.13;;
21432;SDS011;18592;49.708;10.900;2024-02-16T04:44:54;1.30;;;1.20;;
21432;SDS011;18592;49.708;10.900;2024-02-16T04:46:56;1.40;;;1.30;;
21432;SDS011;18592;49.708;10.900;2024-02-16T04:48:57;1.77;;;1.33;;
21432;SDS011;18592;49.708;10.900;2024-02-16T04:50:59;1.35;;;1.23;;
21432;SDS011;18592;49.708;10.900;2024-02-16T04:53:01;1.45;;;1.23;;
21432;SDS011;18592;49.708;10.900;2024-02-16T04:55:05;1.85;;;1.40;;
21432;SDS011;18592;49.708;10.900;2024-02-16T04:57:07;1.60;;;1.23;;
21432;SDS011;18592;49.708;10.900;2024-02-16T04:59:09;1.55;;;1.27;;
21432;SDS011;18592;49.708;10.900;2024-02-16T05:01:10;1.40;;;1.30;;
21432;SDS011;18592;49.708;10.900;2024-02-16T05:03:12;1.10;;;1.00;;
21432;SDS011;18592;49.708;10.900;2024-02-16T05:05:13;1.50;;;1.10;;
21432;SDS011;18592;49.708;10.900;2024-02-16T05:07:16;1.63;;;1.40;;
21432;SDS011;18592;49.708;10.900;2024-02-16T05:09:18;1.80;;;1.40;;
21432;SDS011;18592;49.708;10.900;2024-02-16T05:11:19;2.75;;;1.30;;
21432;SDS011;18592;49.708;10.900;2024-02-16T05:13:21;1.30;;;1.20;;
21432;SDS011;18592;49.708;10.900;2024-02-16T05:15:22;1.45;;;1.30;;
21432;SDS011;18592;49.708;10.900;2024-02-16T05:17:24;1.55;;;1.20;;
21432;SDS011;18592;49.708;10.900;2024-02-16T05:19:26;1.10;;;1.00;;
21432;SDS011;18592;49.708;10.900;2024-02-16T05:21:27;1.70;;;1.40;;
21432;SDS011;18592;49.708;10.900;2024-02-16T05:23:29;1.80;;;1.23;;
21432;SDS011;18592;49.708;10.900;2024-02-16T05:25:30;1.85;;;1.42;;
21432;SDS011;18592;49.708;10.900;2024-02-16T05:27:31;1.20;;;1.10;;
21432;SDS011;18592;49.708;10.900;2024-02-16T05:29:36;1.50;;;1.40;;
21432;SDS011;18592;49.708;10.900;2024-02-16T05:31:37;1.40;;;1.30;;
21432;SDS011;18592;49.708;10.900;2024-02-16T05:33:39;1.30;;;1.20;;
21432;SDS011;18592;49.708;10.900;2024-02-16T05:35:41;1.50;;;1.40;;
21432;SDS011;18592;49.708;10.900;2024-02-16T05:37:47;1.42;;;1.33;;
21432;SDS011;18592;49.708;10.900;2024-02-16T05:39:56;1.50;;;1.40;;
21432;SDS011;18592;49.708;10.900;2024-02-16T05:42:09;1.70;;;1.27;;
21432;SDS011;18592;49.708;10.900;2024-02-16T05:44:11;1.42;;;1.13;;
21432;SDS011;18592;49.708;10.900;2024-02-16T05:46:13;1.50;;;1.40;;
21432;SDS011;18592;49.708;10.900;2024-02-16T05:48:15;1.27;;;1.17;;
21432;SDS011;18592;49.708;10.900;2024-02-16T05:50:17;2.50;;;1.30;;
21432;SDS011;18592;49.708;10.900;2024-02-16T05:52:21;2.15;;;1.38;;
21432;SDS011;18592;49.708;10.900;2024-02-16T05:54:24;2.00;;;1.50;;
21432;SDS011;18592;49.708;10.900;2024-02-16T05:56:25;1.90;;;1.52;;
21432;SDS011;18592;49.708;10.900;2024-02-16T05:58:29;1.75;;;1.55;;
21432;SDS011;18592;49.708;10.900;2024-02-16T06:00:32;1.48;;;1.38;;
21432;SDS011;18592;49.708;10.900;2024-02-16T06:02:35;1.40;;;1.30;;
21432;SDS011;18592;49.708;10.900;2024-02-16T06:04:38;1.60;;;1.35;;
21432;SDS011;18592;49.708;10.900;2024-02-16T06:06:40;2.28;;;1.67;;
21432;SDS011;18592;49.708;10.900;2024-02-16T06:08:42;4.82;;;1.52;;
21432;SDS011;18592;49.708;10.900;2024-02-16T06:10:43;1.50;;;1.40;;
21432;SDS011;18592;49.708;10.900;2024-02-16T06:12:45;1.67;;;1.58;;
21432;SDS011;18592;49.708;10.900;2024-02-16T06:14:47;1.25;;;1.15;;
21432;SDS011;18592;49.708;10.900;2024-02-16T06:17:04;1.40;;;1.30;;
21432;SDS011;18592;49.708;10.900;2024-02-16T06:19:06;1.50;;;1.40;;
21432;SDS011;18592;49.708;10.900;2024-02-16T06:21:09;1.40;;;1.30;;
21432;SDS011;18592;49.708;10.900;2024-02-16T06:23:11;1.75;;;1.52;;
21432;SDS011;18592;49.708;10.900;2024-02-16T06:25:13;2.78;;;1.58;;
21432;SDS011;18592;49.708;10.900;2024-02-16T06:27:15;1.48;;;1.38;;
21432;SDS011;18592;49.708;10.900;2024-02-16T06:29:17;1.30;;;1.20;;
21432;SDS011;18592;49.708;10.900;2024-02-16T06:31:20;1.73;;;1.60;;
21432;SDS011;18592;49.708;10.900;2024-02-16T06:33:22;2.22;;;1.60;;
21432;SDS011;18592;49.708;10.900;2024-02-16T06:35:23;1.58;;;1.40;;
21432;SDS011;18592;49.708;10.900;2024-02-16T06:37:25;2.42;;;1.45;;
21432;SDS011;18592;49.708;10.900;2024-02-16T06:39:26;1.63;;;1.50;;
21432;SDS011;18592;49.708;10.900;2024-02-16T06:41:28;1.63;;;1.23;;
21432;SDS011;18592;49.708;10.900;2024-02-16T06:43:33;2.10;;;1.40;;
21432;SDS011;18592;49.708;10.900;2024-02-16T06:45:34;2.38;;;1.88;;
21432;SDS011;18592;49.708;10.900;2024-02-16T06:47:37;2.50;;;1.55;;
21432;SDS011;18592;49.708;10.900;2024-02-16T06:49:39;2.38;;;1.30;;
21432;SDS011;18592;49.708;10.900;2024-02-16T06:51:40;1.88;;;1.55;;
21432;SDS011;18592;49.708;10.900;2024-02-16T06:53:42;1.83;;;1.63;;
21432;SDS011;18592;49.708;10.900;2024-02-16T06:55:43;1.60;;;1.50;;
21432;SDS011;18592;49.708;10.900;2024-02-16T06:57:45;2.25;;;1.40;;
21432;SDS011;18592;49.708;10.900;2024-02-16T06:59:47;2.55;;;1.50;;
21432;SDS011;18592;49.708;10.900;2024-02-16T07:01:48;1.50;;;1.33;;
21432;SDS011;18592;49.708;10.900;2024-02-16T07:03:50;2.38;;;1.60;;
21432;SDS011;18592;49.708;10.900;2024-02-16T07:05:52;4.50;;;2.17;;
21432;SDS011;18592;49.708;10.900;2024-02-16T07:07:54;8.20;;;3.75;;
21432;SDS011;18592;49.708;10.900;2024-02-16T07:09:55;10.75;;;5.10;;
21432;SDS011;18592;49.708;10.900;2024-02-16T07:11:57;15.52;;;6.63;;
21432;SDS011;18592;49.708;10.900;2024-02-16T07:14:00;20.70;;;9.02;;
21432;SDS011;18592;49.708;10.900;2024-02-16T07:16:03;22.48;;;9.68;;
21432;SDS011;18592;49.708;10.900;2024-02-16T07:18:05;23.30;;;10.02;;
21432;SDS011;18592;49.708;10.900;2024-02-16T07:20:06;26.38;;;10.63;;
21432;SDS011;18592;49.708;10.900;2024-02-16T07:22:09;25.80;;;10.25;;
21432;SDS011;18592;49.708;10.900;2024-02-16T07:24:11;26.55;;;10.60;;
21432;SDS011;18592;49.708;10.900;2024-02-16T07:26:12;27.65;;;10.93;;
21432;SDS011;18592;49.708;10.900;2024-02-16T07:28:15;23.23;;;10.57;;
21432;SDS011;18592;49.708;10.900;2024-02-16T07:30:17;23.95;;;10.10;;
21432;SDS011;18592;49.708;10.900;2024-02-16T07:32:29;24.73;;;10.77;;
21432;SDS011;18592;49.708;10.900;2024-02-16T07:34:31;23.35;;;9.85;;
21432;SDS011;18592;49.708;10.900;2024-02-16T07:36:34;23.20;;;9.77;;
21432;SDS011;18592;49.708;10.900;2024-02-16T07:38:36;20.92;;;9.52;;
21432;SDS011;18592;49.708;10.900;2024-02-16T07:40:37;19.17;;;8.50;;
21432;SDS011;18592;49.708;10.900;2024-02-16T07:42:39;17.83;;;8.43;;
21432;SDS011;18592;49.708;10.900;2024-02-16T07:44:45;15.15;;;7.55;;
21432;SDS011;18592;49.708;10.900;2024-02-16T07:46:47;15.95;;;7.35;;
21432;SDS011;18592;49.708;10.900;2024-02-16T07:48:50;16.38;;;7.45;;
21432;SDS011;18592;49.708;10.900;2024-02-16T07:50:52;17.38;;;7.60;;
21432;SDS011;18592;49.708;10.900;2024-02-16T07:52:54;12.07;;;6.10;;
21432;SDS011;18592;49.708;10.900;2024-02-16T07:54:55;13.25;;;5.90;;
21432;SDS011;18592;49.708;10.900;2024-02-16T07:56:57;11.63;;;5.93;;
21432;SDS011;18592;49.708;10.900;2024-02-16T07:59:02;12.65;;;6.18;;
21432;SDS011;18592;49.708;10.900;2024-02-16T08:01:03;12.73;;;6.32;;
21432;SDS011;18592;49.708;10.900;2024-02-16T08:03:05;9.38;;;5.15;;
21432;SDS011;18592;49.708;10.900;2024-02-16T08:05:07;9.50;;;5.13;;
21432;SDS011;18592;49.708;10.900;2024-02-16T08:07:10;10.40;;;5.40;;
21432;SDS011;18592;49.708;10.900;2024-02-16T08:09:11;8.15;;;5.03;;
21432;SDS011;18592;49.708;10.900;2024-02-16T08:11:13;11.27;;;5.47;;
21432;SDS011;18592;49.708;10.900;2024-02-16T08:13:14;8.32;;;4.80;;
21432;SDS011;18592;49.708;10.900;2024-02-16T08:15:16;7.38;;;4.38;;
21432;SDS011;18592;49.708;10.900;2024-02-16T08:17:24;7.28;;;4.28;;
21432;SDS011;18592;49.708;10.900;2024-02-16T08:19:31;8.63;;;4.05;;
21432;SDS011;18592;49.708;10.900;2024-02-16T08:21:37;6.15;;;3.67;;
21432;SDS011;18592;49.708;10.900;2024-02-16T08:23:39;6.70;;;3.70;;
21432;SDS011;18592;49.708;10.900;2024-02-16T08:25:40;7.82;;;3.65;;
21432;SDS011;18592;49.708;10.900;2024-02-16T08:27:42;8.55;;;4.10;;
21432;SDS011;18592;49.708;10.900;2024-02-16T08:29:44;6.78;;;3.70;;
21432;SDS011;18592;49.708;10.900;2024-02-16T08:31:49;6.68;;;3.65;;
21432;SDS011;18592;49.708;10.900;2024-02-16T08:33:52;6.45;;;3.55;;
21432;SDS011;18592;49.708;10.900;2024-02-16T08:35:53;4.80;;;3.53;;
21432;SDS011;18592;49.708;10.900;2024-02-16T08:38:00;5.40;;;3.42;;
21432;SDS011;18592;49.708;10.900;2024-02-16T08:40:02;5.07;;;3.33;;
21432;SDS011;18592;49.708;10.900;2024-02-16T08:42:05;5.53;;;3.63;;
21432;SDS011;18592;49.708;10.900;2024-02-16T08:44:07;5.55;;;3.38;;
21432;SDS011;18592;49.708;10.900;2024-02-16T08:46:16;4.78;;;3.40;;
21432;SDS011;18592;49.708;10.900;2024-02-16T08:48:17;5.47;;;3.38;;
21432;SDS011;18592;49.708;10.900;2024-02-16T08:50:19;4.60;;;3.17;;
21432;SDS011;18592;49.708;10.900;2024-02-16T08:52:28;5.05;;;3.22;;
21432;SDS011;18592;49.708;10.900;2024-02-16T08:54:30;5.05;;;4.07;;
21432;SDS011;18592;49.708;10.900;2024-02-16T08:56:31;5.85;;;4.63;;
21432;SDS011;18592;49.708;10.900;2024-02-16T08:58:41;7.38;;;5.22;;
21432;SDS011;18592;49.708;10.900;2024-02-16T09:00:42;5.82;;;4.93;;
21432;SDS011;18592;49.708;10.900;2024-02-16T09:02:45;6.38;;;4.05;;
21432;SDS011;18592;49.708;10.900;2024-02-16T09:05:16;6.63;;;4.03;;
21432;SDS011;18592;49.708;10.900;2024-02-16T09:07:20;11.80;;;5.78;;
21432;SDS011;18592;49.708;10.900;2024-02-16T09:09:28;24.05;;;9.05;;
21432;SDS011;18592;49.708;10.900;2024-02-16T09:11:30;19.10;;;9.20;;
21432;SDS011;18592;49.708;10.900;2024-02-16T09:13:39;21.52;;;10.15;;
21432;SDS011;18592;49.708;10.900;2024-02-16T09:15:45;24.35;;;11.23;;
21432;SDS011;18592;49.708;10.900;2024-02-16T09:17:47;26.77;;;12.68;;
21432;SDS011;18592;49.708;10.900;2024-02-16T09:19:48;28.35;;;11.90;;
21432;SDS011;18592;49.708;10.900;2024-02-16T09:21:50;25.05;;;11.85;;
21432;SDS011;18592;49.708;10.900;2024-02-16T09:23:55;26.02;;;11.95;;
21432;SDS011;18592;49.708;10.900;2024-02-16T09:26:02;27.15;;;12.65;;
21432;SDS011;18592;49.708;10.900;2024-02-16T09:28:08;28.48;;;11.77;;
21432;SDS011;18592;49.708;10.900;2024-02-16T09:30:20;28.33;;;11.15;;
21432;SDS011;18592;49.708;10.900;2024-02-16T09:32:25;26.35;;;11.10;;
21432;SDS011;18592;49.708;10.900;2024-02-16T09:34:31;22.83;;;11.20;;
21432;SDS011;18592;49.708;10.900;2024-02-16T09:36:33;23.17;;;9.75;;
21432;SDS011;18592;49.708;10.900;2024-02-16T09:38:37;23.30;;;10.02;;
21432;SDS011;18592;49.708;10.900;2024-02-16T09:40:39;20.92;;;10.32;;
21432;SDS011;18592;49.708;10.900;2024-02-16T09:42:47;18.90;;;8.57;;
21432;SDS011;18592;49.708;10.900;2024-02-16T09:44:56;19.52;;;8.60;;
21432;SDS011;18592;49.708;10.900;2024-02-16T09:47:01;18.77;;;8.90;;
21432;SDS011;18592;49.708;10.900;2024-02-16T09:49:04;18.25;;;8.30;;
21432;SDS011;18592;49.708;10.900;2024-02-16T09:51:06;13.60;;;7.57;;
21432;SDS011;18592;49.708;10.900;2024-02-16T09:53:14;17.15;;;7.72;;
21432;SDS011;18592;49.708;10.900;2024-02-16T09:55:19;15.70;;;7.03;;
21432;SDS011;18592;49.708;10.900;2024-02-16T09:57:24;13.98;;;6.60;;
21432;SDS011;18592;49.708;10.900;2024-02-16T09:59:29;13.63;;;6.20;;
21432;SDS011;18592;49.708;10.900;2024-02-16T10:01:39;13.65;;;6.45;;
21432;SDS011;18592;49.708;10.900;2024-02-16T10:03:43;10.90;;;5.78;;
21432;SDS011;18592;49.708;10.900;2024-02-16T10:05:51;11.02;;;6.15;;
21432;SDS011;18592;49.708;10.900;2024-02-16T10:07:54;11.02;;;5.72;;
21432;SDS011;18592;49.708;10.900;2024-02-16T10:09:56;8.18;;;4.82;;
21432;SDS011;18592;49.708;10.900;2024-02-16T10:11:58;8.50;;;5.03;;
21432;SDS011;18592;49.708;10.900;2024-02-16T10:14:01;10.65;;;5.35;;
21432;SDS011;18592;49.708;10.900;2024-02-16T10:16:09;8.20;;;4.88;;
21432;SDS011;18592;49.708;10.900;2024-02-16T10:18:13;8.48;;;5.07;;
21432;SDS011;18592;49.708;10.900;2024-02-16T10:20:18;8.60;;;4.70;;
21432;SDS011;18592;49.708;10.900;2024-02-16T10:22:19;7.20;;;4.43;;
21432;SDS011;18592;49.708;10.900;2024-02-16T10:24:21;6.95;;;4.45;;
21432;SDS011;18592;49.708;10.900;2024-02-16T10:26:23;7.30;;;3.78;;
21432;SDS011;18592;49.708;10.900;2024-02-16T10:28:26;7.22;;;4.13;;
21432;SDS011;18592;49.708;10.900;2024-02-16T10:30:34;7.15;;;4.30;;
21432;SDS011;18592;49.708;10.900;2024-02-16T10:32:38;7.30;;;3.55;;
21432;SDS011;18592;49.708;10.900;2024-02-16T10:34:41;5.97;;;3.90;;
21432;SDS011;18592;49.708;10.900;2024-02-16T10:36:43;8.60;;;4.10;;
21432;SDS011;18592;49.708;10.900;2024-02-16T10:38:46;5.47;;;3.65;;
21432;SDS011;18592;49.708;10.900;2024-02-16T10:40:49;6.30;;;3.60;;
21432;SDS011;18592;49.708;10.900;2024-02-16T10:42:52;6.47;;;3.90;;
21432;SDS011;18592;49.708;10.900;2024-02-16T10:44:54;5.47;;;3.25;;
21432;SDS011;18592;49.708;10.900;2024-02-16T10:46:56;5.60;;;3.40;;
21432;SDS011;18592;49.708;10.900;2024-02-16T10:48:58;5.35;;;3.53;;
21432;SDS011;18592;49.708;10.900;2024-02-16T10:51:00;6.05;;;3.50;;
21432;SDS011;18592;49.708;10.900;2024-02-16T10:55:27;5.57;;;3.22;;
21432;SDS011;18592;49.708;10.900;2024-02-16T10:57:29;4.95;;;3.20;;
21432;SDS011;18592;49.708;10.900;2024-02-16T10:59:37;5.50;;;3.08;;
21432;SDS011;18592;49.708;10.900;2024-02-16T11:01:44;4.25;;;2.80;;
21432;SDS011;18592;49.708;10.900;2024-02-16T11:03:46;4.03;;;2.90;;
21432;SDS011;18592;49.708;10.900;2024-02-16T11:05:51;5.03;;;2.90;;
21432;SDS011;18592;49.708;10.900;2024-02-16T11:07:59;7.70;;;3.78;;
21432;SDS011;18592;49.708;10.900;2024-02-16T11:10:02;10.40;;;5.18;;
21432;SDS011;18592;49.708;10.900;2024-02-16T11:12:05;13.65;;;6.40;;
21432;SDS011;18592;49.708;10.900;2024-02-16T11:14:14;17.45;;;8.02;;
21432;SDS011;18592;49.708;10.900;2024-02-16T11:16:17;23.20;;;9.07;;
21432;SDS011;18592;49.708;10.900;2024-02-16T11:18:20;21.52;;;9.90;;
21432;SDS011;18592;49.708;10.900;2024-02-16T11:20:23;20.23;;;9.75;;
21432;SDS011;18592;49.708;10.900;2024-02-16T11:22:27;20.50;;;9.70;;
21432;SDS011;18592;49.708;10.900;2024-02-16T11:24:48;21.05;;;9.73;;
21432;SDS011;18592;49.708;10.900;2024-02-16T11:27:09;17.25;;;8.82;;
21432;SDS011;18592;49.708;10.900;2024-02-16T11:29:30;19.23;;;8.80;;
21432;SDS011;18592;49.708;10.900;2024-02-16T11:31:39;17.25;;;8.43;;
21432;SDS011;18592;49.708;10.900;2024-02-16T11:33:44;17.92;;;8.73;;
21432;SDS011;18592;49.708;10.900;2024-02-16T11:35:59;18.33;;;8.90;;
21432;SDS011;18592;49.708;10.900;2024-02-16T11:38:02;18.05;;;8.55;;
21432;SDS011;18592;49.708;10.900;2024-02-16T11:40:05;13.43;;;7.82;;
21432;SDS011;18592;49.708;10.900;2024-02-16T11:42:11;15.95;;;7.40;;
21432;SDS011;18592;49.708;10.900;2024-02-16T11:44:17;16.08;;;7.45;;
21432;SDS011;18592;49.708;10.900;2024-02-16T11:46:18;15.25;;;7.03;;
21432;SDS011;18592;49.708;10.900;2024-02-16T11:48:21;12.70;;;6.55;;
21432;SDS011;18592;49.708;10.900;2024-02-16T11:50:24;14.75;;;6.97;;
21432;SDS011;18592;49.708;10.900;2024-02-16T11:52:27;12.43;;;6.95;;
21432;SDS011;18592;49.708;10.900;2024-02-16T11:54:28;13.02;;;6.57;;
21432;SDS011;18592;49.708;10.900;2024-02-16T11:56:31;13.38;;;6.05;;
21432;SDS011;18592;49.708;10.900;2024-02-16T11:58:33;10.75;;;5.55;;
21432;SDS011;18592;49.708;10.900;2024-02-16T12:00:34;9.95;;;5.30;;
21432;SDS011;18592;49.708;10.900;2024-02-16T12:02:38;12.73;;;6.13;;
21432;SDS011;18592;49.708;10.900;2024-02-16T12:04:41;10.52;;;5.65;;
21432;SDS011;18592;49.708;10.900;2024-02-16T12:06:59;8.98;;;4.93;;
21432;SDS011;18592;49.708;10.900;2024-02-16T12:09:06;9.10;;;5.15;;
21432;SDS011;18592;49.708;10.900;2024-02-16T12:11:07;8.90;;;4.82;;